Time;durP1;ratioP1;P1;durP2;ratioP2;P2;SDS_P1;SDS_P2;PMS_P1;PMS_P2;Temp;Humidity;BMP_temperature;BMP_pressure;BME280_temperature;BME280_humidity;BME280_pressure;Samples;Min_cycle;Max_cycle;Signal;HPM_P1;HPM_P2
2023/07/22 00:01:19;;;;;;;;;;;;;;;13.75;83.87;96460.34;5104703;28;19945;-69
2023/07/22 00:03:45;;;;;;;;;;;;;;;13.74;83.04;96466.66;5102880;28;20028;-69
2023/07/22 00:06:11;;;;;;;;;;;;;;;13.72;84.47;96471.38;5104850;28;19943;-69
2023/07/22 00:08:38;;;;;;;;;;;;;;;13.70;84.74;96463.69;5104597;28;19999;-69
2023/07/22 00:11:04;;;;;;;;;;;;;;;13.68;84.90;96464.97;5104925;28;19934;-80
2023/07/22 00:13:30;;;;;;;;;;;;;;;13.66;84.87;96470.47;5108080;28;19934;-69
2023/07/22 00:15:56;;;;;;;;;;;;;;;13.64;84.74;96475.19;5108594;28;20119;-78
2023/07/22 00:18:23;;;;;;;;;;;;;;;13.61;84.73;96467.75;5106730;28;20125;-78
2023/07/22 00:20:50;;;;;;;;;;;;;;;13.60;83.92;96466.16;5107416;28;19948;-78
2023/07/22 00:23:16;;;;;;;;;;;;;;;13.58;84.12;96466.38;5108623;28;19945;-78
2023/07/22 00:25:42;;;;;;;;;;;;;;;13.56;85.19;96467.66;5107855;28;20224;-78
2023/07/22 00:28:07;;;;;;;;;;;;;;;13.53;85.15;96468.94;5108038;28;19943;-78
2023/07/22 00:30:34;;;;;;;;;;;;;;;13.51;85.11;96473.63;5107829;28;19933;-70
2023/07/22 00:33:00;;;;;;;;;;;;;;;13.50;85.62;96468.59;5107287;28;19938;-70
2023/07/22 00:35:26;;;;;;;;;;;;;;;13.47;84.63;96467.22;5107271;28;19941;-70
2023/07/22 00:37:52;;;;;;;;;;;;;;;13.45;85.44;96466.66;5107619;28;20013;-70
2023/07/22 00:40:19;;;;;;;;;;;;;;;13.43;85.31;96465.31;5108348;28;20116;-69
2023/07/22 00:42:44;;;;;;;;;;;;;;;13.42;85.94;96461.88;5107566;28;20118;-69
2023/07/22 00:45:10;;;;;;;;;;;;;;;13.40;86.13;96462.13;5106263;28;19958;-70
2023/07/22 00:47:36;;;;;;;;;;;;;;;13.40;85.75;96456.06;5106496;28;19949;-74
2023/07/22 00:50:03;;;;;;;;;;;;;;;13.38;85.65;96460.75;5107393;28;19940;-76
2023/07/22 00:52:29;;;;;;;;;;;;;;;13.35;85.15;96467.28;5107373;28;20093;-68
2023/07/22 00:54:55;;;;;;;;;;;;;;;13.33;84.69;96458.00;5107282;28;19953;-69
2023/07/22 00:57:22;;;;;;;;;;;;;;;13.32;85.19;96459.84;5107203;28;20249;-68
2023/07/22 00:59:48;;;;;;;;;;;;;;;13.31;84.84;96455.63;5107198;28;19928;-68
2023/07/22 01:02:13;;;;;;;;;;;;;;;13.30;85.44;96448.75;5105941;28;19943;-68
2023/07/22 01:04:40;;;;;;;;;;;;;;;13.32;85.44;96451.16;5105969;28;19996;-69
2023/07/22 01:07:07;;;;;;;;;;;;;;;13.32;85.84;96451.16;5107329;28;20244;-69
2023/07/22 01:09:39;;;;;;;;;;;;;;;13.32;86.26;96451.16;5105898;28;19938;-76
2023/07/22 01:12:06;;;;;;;;;;;;;;;13.31;86.19;96458.25;5107761;28;19938;-77
2023/07/22 01:14:36;;;;;;;;;;;;;;;13.30;87.41;96455.84;5105780;28;19949;-76
2023/07/22 01:17:02;;;;;;;;;;;;;;;13.31;86.82;96454.81;5106452;28;20258;-75
2023/07/22 01:19:29;;;;;;;;;;;;;;;13.30;86.75;96443.47;5106848;28;19944;-76
2023/07/22 01:22:01;;;;;;;;;;;;;;;13.30;87.50;96438.22;5106146;28;20293;-77
2023/07/22 01:24:30;;;;;;;;;;;;;;;13.30;87.65;96435.59;5105940;28;19978;-82
2023/07/22 01:26:56;;;;;;;;;;;;;;;13.29;87.03;96431.38;5106661;28;19939;-83
2023/07/22 01:29:22;;;;;;;;;;;;;;;13.29;87.83;96431.38;5105454;28;19944;-77
2023/07/22 01:31:50;;;;;;;;;;;;;;;13.28;87.68;96427.09;5088570;28;19940;-76
2023/07/22 01:34:16;;;;;;;;;;;;;;;13.26;87.79;96428.34;5107343;28;19937;-76
2023/07/22 01:36:43;;;;;;;;;;;;;;;13.26;87.64;96428.34;5106450;28;19937;-76
2023/07/22 01:39:10;;;;;;;;;;;;;;;13.24;88.50;96433.84;5107266;28;19933;-77
2023/07/22 01:41:36;;;;;;;;;;;;;;;13.23;88.80;96432.28;5106382;28;20119;-76
2023/07/22 01:44:02;;;;;;;;;;;;;;;13.21;88.46;96426.44;5106289;28;20133;-69
2023/07/22 01:46:28;;;;;;;;;;;;;;;13.21;87.76;96426.44;5107222;28;19978;-76
2023/07/22 01:48:55;;;;;;;;;;;;;;;13.21;87.86;96421.16;5106223;28;19987;-77
2023/07/22 01:51:21;;;;;;;;;;;;;;;13.18;87.66;96427.69;5106755;28;19944;-76
2023/07/22 01:53:48;;;;;;;;;;;;;;;13.16;87.86;96419.22;5106715;28;19926;-76
2023/07/22 01:56:13;;;;;;;;;;;;;;;13.13;88.84;96422.34;5106275;28;19952;-76
2023/07/22 01:58:39;;;;;;;;;;;;;;;13.13;88.12;96418.91;5106654;28;19937;-76
2023/07/22 02:01:07;;;;;;;;;;;;;;;13.11;88.95;96411.22;5106013;28;20198;-69
2023/07/22 02:03:33;;;;;;;;;;;;;;;13.09;88.27;96410.66;5106427;28;19947;-76
2023/07/22 02:06:05;;;;;;;;;;;;;;;13.11;88.12;96413.06;5105903;28;19936;-69
2023/07/22 02:08:31;;;;;;;;;;;;;;;13.09;89.27;96429.09;5105846;28;19938;-69
2023/07/22 02:11:04;;;;;;;;;;;;;;;13.07;88.34;96423.25;5105518;28;20133;-69
2023/07/22 02:13:30;;;;;;;;;;;;;;;13.06;88.02;96424.31;5104611;28;19948;-69
2023/07/22 02:15:56;;;;;;;;;;;;;;;13.05;88.50;96433.22;5106212;28;19939;-69
2023/07/22 02:18:22;;;;;;;;;;;;;;;13.04;87.69;96439.53;5105500;28;19965;-69
2023/07/22 02:20:48;;;;;;;;;;;;;;;13.03;88.97;96443.19;5106214;28;19942;-69
2023/07/22 02:23:14;;;;;;;;;;;;;;;13.02;88.86;96438.16;5105563;28;20124;-79
2023/07/22 02:25:40;;;;;;;;;;;;;;;13.01;88.85;96453.16;5105222;28;19957;-79
2023/07/22 02:28:06;;;;;;;;;;;;;;;12.99;92.16;96450.75;5104268;28;20229;-79
2023/07/22 02:30:35;;;;;;;;;;;;;;;12.92;90.53;96447.47;5104281;28;20248;-79
2023/07/22 02:33:02;;;;;;;;;;;;;;;12.89;90.26;96447.94;5104808;28;19940;-79
2023/07/22 02:35:27;;;;;;;;;;;;;;;12.87;90.54;96455.25;5104183;28;20137;-79
2023/07/22 02:37:53;;;;;;;;;;;;;;;12.85;91.00;96452.06;5105235;28;19934;-69
2023/07/22 02:40:19;;;;;;;;;;;;;;;12.84;90.45;96449.66;5106088;28;19937;-68
2023/07/22 02:42:45;;;;;;;;;;;;;;;12.85;89.94;96451.25;5105251;28;20107;-68
2023/07/22 02:45:12;;;;;;;;;;;;;;;12.85;89.18;96444.16;5103908;28;19959;-68
2023/07/22 02:47:38;;;;;;;;;;;;;;;12.86;89.14;96445.75;5105633;28;19943;-69
2023/07/22 02:50:06;;;;;;;;;;;;;;;12.84;89.63;96442.56;5104657;28;19937;-68
2023/07/22 02:52:32;;;;;;;;;;;;;;;12.83;89.76;96453.31;5105295;28;19935;-68
2023/07/22 02:55:24;;;;;;;;;;;;;;;12.84;89.38;96452.28;5104947;28;19940;-68
2023/07/22 02:57:50;;;;;;;;;;;;;;;12.84;90.06;96445.19;5102189;28;19960;-83
2023/07/22 03:00:23;;;;;;;;;;;;;;;12.85;89.41;96444.16;5104517;28;19945;-70
2023/07/22 03:02:50;;;;;;;;;;;;;;;12.85;89.23;96441.53;5105447;28;19935;-70
2023/07/22 03:05:16;;;;;;;;;;;;;;;12.81;89.17;96440.41;5105437;28;19963;-70
2023/07/22 03:07:42;;;;;;;;;;;;;;;12.78;89.68;96439.00;5104763;28;19971;-70
2023/07/22 03:10:08;;;;;;;;;;;;;;;12.76;89.47;96438.44;5104739;28;19982;-70
2023/07/22 03:12:35;;;;;;;;;;;;;;;12.75;90.23;96438.69;5105203;28;19947;-70
2023/07/22 03:15:01;;;;;;;;;;;;;;;12.74;90.14;96447.59;5104669;28;20031;-69
2023/07/22 03:17:27;;;;;;;;;;;;;;;12.73;90.11;96440.75;5104451;28;20277;-78
2023/07/22 03:19:53;;;;;;;;;;;;;;;12.73;90.24;96443.38;5104612;28;19945;-77
2023/07/22 03:22:19;;;;;;;;;;;;;;;12.72;89.86;96439.13;5104541;28;19948;-77
2023/07/22 03:24:45;;;;;;;;;;;;;;;12.71;89.87;96446.25;5104446;28;19951;-77
2023/07/22 03:27:12;;;;;;;;;;;;;;;12.71;89.75;96445.44;5104964;28;19940;-77
2023/07/22 03:29:38;;;;;;;;;;;;;;;12.69;89.96;96443.03;5104995;28;19941;-77
2023/07/22 03:32:04;;;;;;;;;;;;;;;12.69;89.57;96436.97;5104353;28;19938;-77
2023/07/22 03:34:31;;;;;;;;;;;;;;;12.70;89.70;96435.94;5104374;28;20226;-69
2023/07/22 03:36:57;;;;;;;;;;;;;;;12.69;89.85;96439.59;5105205;28;19938;-70
2023/07/22 03:39:22;;;;;;;;;;;;;;;12.68;88.96;96435.38;5104317;28;20230;-69
2023/07/22 03:41:48;;;;;;;;;;;;;;;12.65;90.13;96439.25;5104353;28;19942;-69
2023/07/22 03:44:14;;;;;;;;;;;;;;;12.60;90.09;96433.91;5104243;28;19950;-69
2023/07/22 03:46:40;;;;;;;;;;;;;;;12.55;90.73;96437.19;5102649;28;20271;-69
2023/07/22 03:49:06;;;;;;;;;;;;;;;12.50;90.44;96436.31;5104257;28;19929;-70
2023/07/22 03:51:32;;;;;;;;;;;;;;;12.48;90.76;96444.44;5104778;28;19936;-69
2023/07/22 03:53:58;;;;;;;;;;;;;;;12.47;90.97;96436.75;5103677;28;19938;-71
2023/07/22 03:56:24;;;;;;;;;;;;;;;12.43;91.58;96438.25;5104309;28;19956;-70
2023/07/22 03:58:50;;;;;;;;;;;;;;;12.41;91.54;96435.88;5103091;28;19970;-70
2023/07/22 04:01:16;;;;;;;;;;;;;;;12.39;91.67;96438.72;5104940;28;20119;-70
2023/07/22 04:03:41;;;;;;;;;;;;;;;12.37;92.19;96432.09;5104152;28;19935;-70
2023/07/22 04:06:07;;;;;;;;;;;;;;;12.34;91.85;96429.91;5102836;28;19959;-70
2023/07/22 04:08:33;;;;;;;;;;;;;;;12.36;91.21;96428.63;5104093;28;19984;-70
2023/07/22 04:10:59;;;;;;;;;;;;;;;12.39;90.85;96420.31;5104319;28;19932;-75
2023/07/22 04:13:26;;;;;;;;;;;;;;;12.44;90.97;96421.44;5104036;28;19936;-69
2023/07/22 04:15:52;;;;;;;;;;;;;;;12.46;91.04;96422.03;5103454;28;19952;-69
2023/07/22 04:18:18;;;;;;;;;;;;;;;12.49;90.74;96421.56;5103834;28;19961;-70
2023/07/22 04:20:44;;;;;;;;;;;;;;;12.50;91.67;96431.84;5104729;28;19948;-69
2023/07/22 04:23:10;;;;;;;;;;;;;;;12.49;91.89;96429.44;5102814;28;19939;-69
2023/07/22 04:25:40;;;;;;;;;;;;;;;12.48;90.70;96417.34;5104333;28;20138;-69
2023/07/22 04:28:07;;;;;;;;;;;;;;;12.48;91.56;96433.91;5103834;28;20126;-69
2023/07/22 04:30:33;;;;;;;;;;;;;;;12.51;91.68;96430.00;5103886;28;19931;-77
2023/07/22 04:32:59;;;;;;;;;;;;;;;12.55;91.62;96425.88;5103836;28;19945;-69
2023/07/22 04:35:24;;;;;;;;;;;;;;;12.58;92.31;96431.50;5103843;28;19937;-69
2023/07/22 04:37:50;;;;;;;;;;;;;;;12.63;91.69;96433.44;5104380;28;19985;-69
2023/07/22 04:40:16;;;;;;;;;;;;;;;12.67;91.73;96429.31;5103715;28;19939;-69
2023/07/22 04:42:43;;;;;;;;;;;;;;;12.70;91.95;96431.47;5102679;28;20225;-69
2023/07/22 04:45:11;;;;;;;;;;;;;;;12.73;92.42;96436.28;5104423;28;19959;-69
2023/07/22 04:47:38;;;;;;;;;;;;;;;12.79;91.53;96429.31;5104523;28;19935;-67
2023/07/22 04:50:08;;;;;;;;;;;;;;;12.85;91.69;96433.63;5103322;28;19937;-84
2023/07/22 04:52:35;;;;;;;;;;;;;;;12.93;92.51;96438.50;5103681;28;19951;-83
2023/07/22 04:55:04;;;;;;;;;;;;;;;13.00;91.62;96433.94;5104149;28;19932;-84
2023/07/22 04:57:30;;;;;;;;;;;;;;;13.08;91.70;96434.59;5103538;28;19955;-83
2023/07/22 04:59:56;;;;;;;;;;;;;;;13.15;91.61;96436.06;5107220;28;19943;-84
2023/07/22 05:02:22;;;;;;;;;;;;;;;13.24;91.36;96433.84;5106820;28;20114;-83
2023/07/22 05:04:48;;;;;;;;;;;;;;;13.33;90.55;96432.50;5107053;28;19992;-83
2023/07/22 05:07:14;;;;;;;;;;;;;;;13.44;90.44;96430.84;5107104;28;19934;-73
2023/07/22 05:09:40;;;;;;;;;;;;;;;13.53;89.62;96433.88;5107029;28;19945;-78
2023/07/22 05:12:06;;;;;;;;;;;;;;;13.61;90.23;96444.03;5106978;28;20167;-78
2023/07/22 05:14:32;;;;;;;;;;;;;;;13.65;87.81;96429.38;5107249;28;19930;-78
2023/07/22 05:16:57;;;;;;;;;;;;;;;13.74;87.79;96435.03;5106900;28;19934;-78
2023/07/22 05:19:23;;;;;;;;;;;;;;;13.88;87.42;96444.25;5106754;28;19961;-78
2023/07/22 05:21:49;;;;;;;;;;;;;;;13.99;87.29;96440.72;5107378;28;19941;-78
2023/07/22 05:24:15;;;;;;;;;;;;;;;14.11;86.76;96440.66;5107461;28;19989;-69
2023/07/22 05:26:41;;;;;;;;;;;;;;;14.29;86.33;96446.72;5106779;28;20220;-71
2023/07/22 05:29:07;;;;;;;;;;;;;;;14.43;84.97;96432.16;5106391;28;19934;-70
2023/07/22 05:31:33;;;;;;;;;;;;;;;14.60;84.58;96437.44;5106676;28;19935;-70
2023/07/22 05:33:59;;;;;;;;;;;;;;;14.76;83.61;96428.66;5106817;28;19933;-71
2023/07/22 05:36:25;;;;;;;;;;;;;;;14.92;82.54;96427.00;5106807;28;19939;-70
2023/07/22 05:38:54;;;;;;;;;;;;;;;15.04;82.37;96426.88;5106548;28;20216;-70
2023/07/22 05:41:20;;;;;;;;;;;;;;;15.13;81.94;96430.69;5106584;28;20236;-70
2023/07/22 05:43:45;;;;;;;;;;;;;;;15.25;81.68;96424.50;5107006;28;19945;-69
2023/07/22 05:46:11;;;;;;;;;;;;;;;15.30;80.09;96416.59;5105166;28;19966;-79
2023/07/22 05:48:37;;;;;;;;;;;;;;;15.35;79.97;96421.94;5106264;28;19944;-79
2023/07/22 05:51:03;;;;;;;;;;;;;;;15.41;79.84;96423.56;5106322;28;19936;-79
2023/07/22 05:53:29;;;;;;;;;;;;;;;15.50;78.80;96422.09;5106242;28;19984;-79
2023/07/22 05:55:55;;;;;;;;;;;;;;;15.61;79.41;96430.91;5106131;28;19984;-79
2023/07/22 05:58:21;;;;;;;;;;;;;;;15.74;78.92;96429.75;5106687;28;19934;-79
2023/07/22 06:00:46;;;;;;;;;;;;;;;15.90;78.25;96431.47;5106111;28;19948;-69
2023/07/22 06:03:13;;;;;;;;;;;;;;;16.10;78.22;96419.47;5106828;28;19935;-70
2023/07/22 06:05:38;;;;;;;;;;;;;;;16.35;77.58;96418.84;5106469;28;19978;-72
2023/07/22 06:08:05;;;;;;;;;;;;;;;16.53;76.28;96404.41;5104839;28;19931;-70
2023/07/22 06:10:31;;;;;;;;;;;;;;;16.67;75.64;96402.06;5088112;28;19947;-70
2023/07/22 06:12:57;;;;;;;;;;;;;;;16.78;74.66;96399.22;5106052;28;19937;-70
2023/07/22 06:15:23;;;;;;;;;;;;;;;17.02;74.82;96404.09;5105752;28;19944;-70
2023/07/22 06:17:49;;;;;;;;;;;;;;;17.24;74.65;96402.06;5106072;28;19969;-71
2023/07/22 06:20:14;;;;;;;;;;;;;;;17.45;73.76;96394.16;5105733;28;19953;-70
2023/07/22 06:22:40;;;;;;;;;;;;;;;17.55;71.96;96385.41;5105347;28;19998;-76
2023/07/22 06:25:06;;;;;;;;;;;;;;;17.60;71.53;96386.22;5106051;28;19964;-76
2023/07/22 06:27:33;;;;;;;;;;;;;;;17.72;72.45;96390.44;5105584;28;19934;-77
2023/07/22 06:29:59;;;;;;;;;;;;;;;17.93;71.67;96383.31;5106285;28;20247;-77
2023/07/22 06:32:25;;;;;;;;;;;;;;;18.13;71.42;96379.88;5106311;28;19934;-77
2023/07/22 06:34:50;;;;;;;;;;;;;;;18.31;71.42;96384.63;5105956;28;19933;-76
2023/07/22 06:37:16;;;;;;;;;;;;;;;18.49;70.83;96383.25;5105348;28;19943;-77
2023/07/22 06:39:42;;;;;;;;;;;;;;;18.57;70.79;96392.53;5105831;28;19936;-84
2023/07/22 06:42:08;;;;;;;;;;;;;;;18.67;70.11;96384.53;5105910;28;19940;-79
2023/07/22 06:44:34;;;;;;;;;;;;;;;18.76;69.59;96384.75;5104063;28;19941;-79
2023/07/22 06:47:00;;;;;;;;;;;;;;;18.83;68.65;96377.31;5105680;28;19939;-80
2023/07/22 06:49:25;;;;;;;;;;;;;;;18.80;68.41;96375.22;5105102;28;19937;-78
2023/07/22 06:51:51;;;;;;;;;;;;;;;18.76;68.94;96377.56;5105058;28;19999;-79
2023/07/22 06:54:17;;;;;;;;;;;;;;;18.89;68.87;96376.22;5105166;28;19941;-79
2023/07/22 06:56:43;;;;;;;;;;;;;;;19.07;68.81;96385.47;5104972;28;19951;-83
2023/07/22 06:59:09;;;;;;;;;;;;;;;19.24;69.32;96391.19;5104958;28;19940;-70
2023/07/22 07:01:35;;;;;;;;;;;;;;;19.37;69.27;96387.13;5104620;28;19937;-69
2023/07/22 07:04:01;;;;;;;;;;;;;;;19.38;68.03;96375.44;5104863;28;20027;-69
2023/07/22 07:06:28;;;;;;;;;;;;;;;19.33;68.39;96380.00;5105609;28;19951;-70
2023/07/22 07:08:55;;;;;;;;;;;;;;;19.19;67.16;96374.47;5104801;28;19933;-69
2023/07/22 07:11:20;;;;;;;;;;;;;;;19.20;68.07;96378.75;5104704;28;19957;-69
2023/07/22 07:13:46;;;;;;;;;;;;;;;19.23;67.88;96386.97;5103662;28;20231;-81
2023/07/22 07:16:23;;;;;;;;;;;;;;;19.30;69.33;96394.63;5105193;28;20229;-69
2023/07/22 07:18:49;;;;;;;;;;;;;;;19.46;68.98;96387.34;5104893;28;20266;-70
2023/07/22 07:21:15;;;;;;;;;;;;;;;19.65;68.40;96390.97;5104566;28;19961;-70
2023/07/22 07:23:41;;;;;;;;;;;;;;;19.83;66.95;96376.22;5103408;28;19939;-71
2023/07/22 07:26:07;;;;;;;;;;;;;;;19.95;67.77;96381.19;5104970;28;20008;-70
2023/07/22 07:28:32;;;;;;;;;;;;;;;20.06;65.44;96365.91;5104111;28;19951;-70
2023/07/22 07:30:58;;;;;;;;;;;;;;;20.29;66.85;96380.31;5104475;28;20093;-71
2023/07/22 07:33:24;;;;;;;;;;;;;;;20.47;65.09;96371.63;5103356;28;19941;-69
2023/07/22 07:35:50;;;;;;;;;;;;;;;20.60;65.21;96370.19;5104429;28;19976;-80
2023/07/22 07:38:16;;;;;;;;;;;;;;;20.70;64.87;96368.47;5104280;28;19980;-79
2023/07/22 07:40:42;;;;;;;;;;;;;;;20.75;64.41;96369.22;5104887;28;19941;-79
2023/07/22 07:43:08;;;;;;;;;;;;;;;20.86;64.53;96369.88;5104331;28;19933;-79
2023/07/22 07:45:39;;;;;;;;;;;;;;;21.01;66.37;96384.88;5104251;28;20241;-79
2023/07/22 07:48:05;;;;;;;;;;;;;;;21.15;63.88;96369.75;5104240;28;19947;-79
2023/07/22 07:50:32;;;;;;;;;;;;;;;21.29;64.01;96372.50;5104831;28;20094;-83
2023/07/22 07:52:59;;;;;;;;;;;;;;;21.46;63.92;96375.50;5104240;28;19937;-70
2023/07/22 07:55:25;;;;;;;;;;;;;;;21.51;62.28;96358.63;5104744;28;19939;-70
2023/07/22 07:57:51;;;;;;;;;;;;;;;21.66;61.70;96355.69;5104179;28;20145;-70
2023/07/22 08:00:17;;;;;;;;;;;;;;;21.82;61.34;96366.16;5104145;28;19935;-71
2023/07/22 08:02:43;;;;;;;;;;;;;;;21.95;60.29;96381.41;5104407;28;19941;-71
2023/07/22 08:05:09;;;;;;;;;;;;;;;22.02;61.63;96400.50;5102933;28;20011;-70
2023/07/22 08:07:34;;;;;;;;;;;;;;;22.17;59.39;96398.66;5104105;28;19944;-71
2023/07/22 08:10:00;;;;;;;;;;;;;;;22.31;58.01;96396.84;5104620;28;20166;-77
2023/07/22 08:12:26;;;;;;;;;;;;;;;22.39;58.11;96400.75;5103020;28;20217;-71
2023/07/22 08:14:53;;;;;;;;;;;;;;;22.37;54.30;96386.88;5104561;28;19960;-70
2023/07/22 08:17:19;;;;;;;;;;;;;;;22.39;56.73;96414.09;5103825;28;19934;-71
2023/07/22 08:19:44;;;;;;;;;;;;;;;22.46;53.40;96390.44;5104821;28;19944;-72
2023/07/22 08:22:10;;;;;;;;;;;;;;;22.45;50.00;96395.00;5103939;28;19943;-71
2023/07/22 08:24:36;;;;;;;;;;;;;;;22.50;48.36;96408.25;5103946;28;19943;-71
2023/07/22 08:27:02;;;;;;;;;;;;;;;22.60;47.04;96407.28;5103803;28;20262;-71
2023/07/22 08:29:28;;;;;;;;;;;;;;;22.42;43.61;96411.59;5104014;28;19971;-77
2023/07/22 08:31:54;;;;;;;;;;;;;;;22.57;48.40;96413.22;5105012;28;19935;-83
2023/07/22 08:34:20;;;;;;;;;;;;;;;22.72;45.40;96409.47;5108510;28;19941;-83
2023/07/22 08:36:46;;;;;;;;;;;;;;;22.87;46.45;96414.53;5107643;28;20153;-83
2023/07/22 08:39:12;;;;;;;;;;;;;;;22.90;44.40;96415.81;5108445;28;19936;-84
2023/07/22 08:41:38;;;;;;;;;;;;;;;22.74;42.95;96412.66;5107597;28;19938;-83
2023/07/22 08:44:04;;;;;;;;;;;;;;;22.52;48.11;96426.69;5108091;28;19934;-83
2023/07/22 08:46:32;;;;;;;;;;;;;;;22.27;44.63;96419.91;5108248;28;19948;-77
2023/07/22 08:49:00;;;;;;;;;;;;;;;22.13;45.25;96413.69;5107936;28;19935;-69
2023/07/22 08:51:28;;;;;;;;;;;;;;;22.05;45.95;96423.19;5106296;28;19941;-71
2023/07/22 08:53:56;;;;;;;;;;;;;;;21.96;48.82;96433.72;5107982;28;20012;-71
2023/07/22 08:56:26;;;;;;;;;;;;;;;21.87;46.29;96436.25;5106050;28;19959;-71
2023/07/22 08:58:52;;;;;;;;;;;;;;;21.83;48.36;96440.59;5107280;28;19938;-70
2023/07/22 09:01:18;;;;;;;;;;;;;;;21.85;47.44;96440.31;5106117;28;19949;-70
2023/07/22 09:03:44;;;;;;;;;;;;;;;21.99;49.37;96435.81;5108030;28;19931;-71
2023/07/22 09:06:10;;;;;;;;;;;;;;;22.15;48.91;96430.22;5107348;28;19982;-79
2023/07/22 09:08:38;;;;;;;;;;;;;;;22.31;48.56;96430.81;5107944;28;20243;-70
2023/07/22 09:11:04;;;;;;;;;;;;;;;22.26;49.85;96435.16;5107003;28;19931;-71
2023/07/22 09:13:30;;;;;;;;;;;;;;;22.17;49.34;96434.19;5089721;28;19951;-71
2023/07/22 09:15:59;;;;;;;;;;;;;;;21.94;46.62;96429.75;5106974;28;19931;-70
2023/07/22 09:18:26;;;;;;;;;;;;;;;21.81;49.78;96441.97;5105907;28;19966;-71
2023/07/22 09:20:52;;;;;;;;;;;;;;;21.74;50.54;96439.66;5107096;28;19939;-70
2023/07/22 09:23:17;;;;;;;;;;;;;;;21.63;48.71;96433.69;5107640;28;19970;-70
2023/07/22 09:25:44;;;;;;;;;;;;;;;21.57;49.21;96432.19;5106758;28;19957;-79
2023/07/22 09:28:10;;;;;;;;;;;;;;;21.51;49.48;96438.66;5106685;28;19944;-70
2023/07/22 09:30:38;;;;;;;;;;;;;;;21.51;48.65;96438.66;5106304;28;20011;-71
2023/07/22 09:33:04;;;;;;;;;;;;;;;21.47;49.44;96437.66;5106226;28;19949;-71
2023/07/22 09:35:31;;;;;;;;;;;;;;;21.38;49.12;96434.81;5107383;28;19942;-71
2023/07/22 09:37:58;;;;;;;;;;;;;;;21.27;49.51;96436.81;5107087;28;20230;-71
2023/07/22 09:40:26;;;;;;;;;;;;;;;21.21;51.12;96443.28;5105423;28;20105;-71
2023/07/22 09:42:52;;;;;;;;;;;;;;;21.23;51.73;96446.47;5105407;28;19949;-70
2023/07/22 09:45:20;;;;;;;;;;;;;;;21.28;51.08;96430.38;5104442;28;19952;-77
2023/07/22 09:47:47;;;;;;;;;;;;;;;21.60;50.96;96436.91;5106899;28;20211;-77
2023/07/22 09:50:17;;;;;;;;;;;;;;;21.92;49.79;96424.69;5106297;28;19938;-78
2023/07/22 09:52:47;;;;;;;;;;;;;;;22.03;49.62;96420.81;5106284;28;20132;-78
2023/07/22 09:55:18;;;;;;;;;;;;;;;22.10;48.48;96410.53;5106528;28;19946;-78
2023/07/22 09:57:45;;;;;;;;;;;;;;;22.32;49.87;96425.16;5106887;28;19954;-78
2023/07/22 10:00:12;;;;;;;;;;;;;;;22.57;47.67;96415.88;5106336;28;19939;-71
2023/07/22 10:02:40;;;;;;;;;;;;;;;22.89;48.81;96408.88;5104946;28;20119;-83
2023/07/22 10:05:07;;;;;;;;;;;;;;;23.22;46.41;96412.22;5104645;28;19941;-71
2023/07/22 10:07:33;;;;;;;;;;;;;;;23.42;41.55;96399.53;5105955;28;19949;-72
2023/07/22 10:09:59;;;;;;;;;;;;;;;23.44;44.90;96408.81;5106147;28;19931;-71
2023/07/22 10:12:26;;;;;;;;;;;;;;;23.35;44.13;96402.63;5104699;28;19944;-71
2023/07/22 10:14:53;;;;;;;;;;;;;;;23.21;43.03;96399.16;5104602;28;19942;-71
2023/07/22 10:17:19;;;;;;;;;;;;;;;23.02;43.80;96404.66;5106276;28;19934;-71
2023/07/22 10:19:45;;;;;;;;;;;;;;;22.83;39.87;96408.19;5106292;28;20150;-78
2023/07/22 10:22:11;;;;;;;;;;;;;;;23.02;42.06;96410.00;5106225;28;19937;-71
2023/07/22 10:24:39;;;;;;;;;;;;;;;23.44;43.71;96408.81;5087545;28;20135;-71
2023/07/22 10:27:06;;;;;;;;;;;;;;;23.84;41.43;96409.00;5105470;28;19956;-71
2023/07/22 10:29:33;;;;;;;;;;;;;;;24.27;41.93;96391.63;5105540;28;20129;-72
2023/07/22 10:31:59;;;;;;;;;;;;;;;24.37;40.95;96395.94;5105114;28;19946;-71
2023/07/22 10:34:25;;;;;;;;;;;;;;;24.21;39.63;96414.28;5105971;28;19944;-72
2023/07/22 10:36:51;;;;;;;;;;;;;;;24.01;39.72;96400.31;5105933;28;19939;-77
2023/07/22 10:39:27;;;;;;;;;;;;;;;23.93;41.15;96408.28;5105852;28;20237;-77
2023/07/22 10:42:04;;;;;;;;;;;;;;;23.78;41.42;96412.13;5105572;28;19936;-70
2023/07/22 10:44:35;;;;;;;;;;;;;;;23.64;43.71;96422.84;5106157;28;19943;-70
2023/07/22 10:47:03;;;;;;;;;;;;;;;23.55;44.09;96413.94;5104698;28;19964;-71
2023/07/22 10:49:42;;;;;;;;;;;;;;;23.46;44.93;96411.22;5104138;28;20119;-70
2023/07/22 10:52:10;;;;;;;;;;;;;;;23.36;45.74;96408.75;5105639;28;20120;-70
2023/07/22 10:54:36;;;;;;;;;;;;;;;23.26;46.84;96413.22;5105547;28;19938;-70
2023/07/22 10:57:22;;;;;;;;;;;;;;;23.15;44.85;96414.53;5103716;28;19953;-79
2023/07/22 10:59:51;;;;;;;;;;;;;;;23.08;46.22;96409.59;5104626;28;19945;-71
2023/07/22 11:02:25;;;;;;;;;;;;;;;23.26;46.29;96404.41;5086757;28;19948;-71
2023/07/22 11:04:51;;;;;;;;;;;;;;;23.62;45.66;96398.25;5103816;28;19938;-71
2023/07/22 11:07:29;;;;;;;;;;;;;;;24.00;44.77;96392.56;5104785;28;19985;-71
2023/07/22 11:09:55;;;;;;;;;;;;;;;24.31;43.97;96385.34;5104512;28;19961;-71
2023/07/22 11:12:22;;;;;;;;;;;;;;;24.43;41.68;96384.00;5103707;28;20233;-71
2023/07/22 11:14:51;;;;;;;;;;;;;;;24.64;43.99;96381.56;5104752;28;19935;-85
2023/07/22 11:17:26;;;;;;;;;;;;;;;24.84;40.82;96375.66;5103321;28;20244;-80
2023/07/22 11:19:52;;;;;;;;;;;;;;;25.02;42.21;96368.44;5105504;28;19936;-82
2023/07/22 11:22:18;;;;;;;;;;;;;;;25.06;42.27;96366.69;5086640;28;19937;-82
2023/07/22 11:24:44;;;;;;;;;;;;;;;24.86;40.90;96369.97;5105180;28;20222;-83
2023/07/22 11:27:11;;;;;;;;;;;;;;;24.58;41.06;96362.16;5105330;28;19984;-82
2023/07/22 11:29:37;;;;;;;;;;;;;;;24.29;42.12;96370.66;5104504;28;19938;-82
2023/07/22 11:32:04;;;;;;;;;;;;;;;24.07;42.80;96376.88;5104470;28;20038;-72
2023/07/22 11:34:29;;;;;;;;;;;;;;;24.29;42.99;96362.63;5104067;28;19938;-71
2023/07/22 11:36:56;;;;;;;;;;;;;;;24.50;40.25;96358.31;5103900;28;19931;-71
2023/07/22 11:39:24;;;;;;;;;;;;;;;24.53;40.51;96346.22;5104910;28;20112;-71
2023/07/22 11:41:50;;;;;;;;;;;;;;;24.37;41.62;96363.78;5103296;28;19939;-72
2023/07/22 11:44:18;;;;;;;;;;;;;;;24.28;42.70;96361.84;5103135;28;19935;-71
2023/07/22 11:46:54;;;;;;;;;;;;;;;24.21;40.82;96347.28;5104248;28;19958;-71
2023/07/22 11:49:31;;;;;;;;;;;;;;;24.42;42.51;96348.34;5104285;28;19933;-71
2023/07/22 11:51:58;;;;;;;;;;;;;;;24.80;42.16;96350.56;5103136;28;20133;-76
2023/07/22 11:54:24;;;;;;;;;;;;;;;25.16;39.80;96337.97;5103865;28;19947;-78
2023/07/22 11:56:50;;;;;;;;;;;;;;;25.25;39.17;96328.84;5104385;28;20231;-78
2023/07/22 11:59:16;;;;;;;;;;;;;;;25.51;38.44;96333.44;5104761;28;19946;-78
2023/07/22 12:01:45;;;;;;;;;;;;;;;25.72;39.84;96337.06;5105003;28;19946;-78
2023/07/22 12:04:14;;;;;;;;;;;;;;;25.98;37.57;96330.09;5103881;28;19940;-77
2023/07/22 12:06:41;;;;;;;;;;;;;;;26.09;38.39;96332.09;5103777;28;20125;-78
2023/07/22 12:09:09;;;;;;;;;;;;;;;25.98;36.90;96330.09;5108846;28;19941;-72
2023/07/22 12:11:35;;;;;;;;;;;;;;;25.75;37.70;96332.94;5109101;28;19943;-76
2023/07/22 12:14:13;;;;;;;;;;;;;;;25.46;38.76;96333.59;5108173;28;20000;-77
2023/07/22 12:16:40;;;;;;;;;;;;;;;25.19;40.29;96343.50;5108673;28;20234;-76
2023/07/22 12:19:06;;;;;;;;;;;;;;;24.98;40.10;96335.28;5107928;28;20180;-77
2023/07/22 12:21:33;;;;;;;;;;;;;;;25.06;39.84;96331.03;5108599;28;19939;-77
2023/07/22 12:23:59;;;;;;;;;;;;;;;25.41;39.77;96323.81;5107964;28;19940;-77
2023/07/22 12:26:25;;;;;;;;;;;;;;;25.76;39.91;96329.13;5107619;28;19962;-78
2023/07/22 12:28:51;;;;;;;;;;;;;;;25.99;37.63;96329.75;5108182;28;19943;-71
2023/07/22 12:31:17;;;;;;;;;;;;;;;26.22;38.55;96333.00;5072865;28;20127;-84
2023/07/22 12:33:43;;;;;;;;;;;;;;;26.42;36.65;96310.00;5107795;28;19977;-84
2023/07/22 12:36:10;;;;;;;;;;;;;;;26.63;35.74;96306.63;5108273;28;19946;-85
2023/07/22 12:38:36;;;;;;;;;;;;;;;26.76;33.72;96321.72;5107733;28;19944;-84
2023/07/22 12:41:02;;;;;;;;;;;;;;;26.82;37.56;96317.72;5107711;28;19945;-84
2023/07/22 12:43:28;;;;;;;;;;;;;;;26.97;35.30;96324.44;5107610;28;19936;-84
2023/07/22 12:45:54;;;;;;;;;;;;;;;27.07;35.15;96312.50;5108023;28;20048;-82